sensor_id;sensor_type;location;lat;lon;timestamp;pressure;altitude;pressure_sealevel;temperature;humidity
68197;BME280;55019;49.382;11.358;2024-02-14T00:01:35;97055.38;;;1.41;100.00
68197;BME280;55019;49.382;11.358;2024-02-14T00:04:03;97055.47;;;1.40;100.00
68197;BME280;55019;49.382;11.358;2024-02-14T00:06:29;97056.09;;;1.43;100.00
68197;BME280;55019;49.382;11.358;2024-02-14T00:08:55;97050.06;;;1.32;100.00
68197;BME280;55019;49.382;11.358;2024-02-14T00:11:20;97043.03;;;1.36;100.00
68197;BME280;55019;49.382;11.358;2024-02-14T00:13:46;97044.66;;;1.37;100.00
68197;BME280;55019;49.382;11.358;2024-02-14T00:16:12;97050.38;;;1.40;100.00
68197;BME280;55019;49.382;11.358;2024-02-14T00:18:37;97041.31;;;1.36;100.00
68197;BME280;55019;49.382;11.358;2024-02-14T00:21:03;97038.97;;;1.19;100.00
68197;BME280;55019;49.382;11.358;2024-02-14T00:23:29;97034.63;;;1.21;100.00
68197;BME280;55019;49.382;11.358;2024-02-14T00:25:54;97044.38;;;1.15;100.00
68197;BME280;55019;49.382;11.358;2024-02-14T00:28:20;97050.47;;;1.12;100.00
68197;BME280;55019;49.382;11.358;2024-02-14T00:30:49;97041.63;;;1.18;100.00
68197;BME280;55019;49.382;11.358;2024-02-14T00:33:34;97042.03;;;1.12;100.00
68197;BME280;55019;49.382;11.358;2024-02-14T00:36:00;97036.94;;;1.12;100.00
68197;BME280;55019;49.382;11.358;2024-02-14T00:38:26;97051.22;;;1.00;100.00
68197;BME280;55019;49.382;11.358;2024-02-14T00:40:51;97045.22;;;1.01;100.00
68197;BME280;55019;49.382;11.358;2024-02-14T00:43:17;97049.38;;;1.02;100.00
68197;BME280;55019;49.382;11.358;2024-02-14T00:45:43;97042.59;;;1.03;100.00
68197;BME280;55019;49.382;11.358;2024-02-14T00:48:08;97055.59;;;0.98;100.00
68197;BME280;55019;49.382;11.358;2024-02-14T00:50:34;97047.75;;;1.01;100.00
68197;BME280;55019;49.382;11.358;2024-02-14T00:53:00;97066.09;;;1.06;100.00
68197;BME280;55019;49.382;11.358;2024-02-14T00:55:25;97054.81;;;1.10;100.00
68197;BME280;55019;49.382;11.358;2024-02-14T00:57:51;97057.94;;;1.01;100.00
68197;BME280;55019;49.382;11.358;2024-02-14T01:00:17;97049.59;;;0.99;100.00
68197;BME280;55019;49.382;11.358;2024-02-14T01:02:44;97062.13;;;1.02;100.00
68197;BME280;55019;49.382;11.358;2024-02-14T01:05:10;97057.28;;;0.98;100.00
68197;BME280;55019;49.382;11.358;2024-02-14T01:07:36;97058.13;;;0.98;100.00
68197;BME280;55019;49.382;11.358;2024-02-14T01:10:02;97068.13;;;1.01;100.00
68197;BME280;55019;49.382;11.358;2024-02-14T01:12:30;97062.03;;;1.04;100.00
68197;BME280;55019;49.382;11.358;2024-02-14T01:14:57;97057.03;;;1.02;100.00
68197;BME280;55019;49.382;11.358;2024-02-14T01:17:23;97057.75;;;1.04;100.00
68197;BME280;55019;49.382;11.358;2024-02-14T01:19:49;97055.78;;;0.95;100.00
68197;BME280;55019;49.382;11.358;2024-02-14T01:22:17;97062.13;;;1.02;100.00
68197;BME280;55019;49.382;11.358;2024-02-14T01:25:00;97062.38;;;0.98;100.00
68197;BME280;55019;49.382;11.358;2024-02-14T01:27:25;97052.22;;;0.98;100.00
68197;BME280;55019;49.382;11.358;2024-02-14T01:29:51;97058.31;;;0.95;100.00
68197;BME280;55019;49.382;11.358;2024-02-14T01:32:17;97059.38;;;1.05;100.00
68197;BME280;55019;49.382;11.358;2024-02-14T01:34:43;97061.59;;;0.97;100.00
68197;BME280;55019;49.382;11.358;2024-02-14T01:37:09;97066.28;;;1.03;100.00
68197;BME280;55019;49.382;11.358;2024-02-14T01:39:37;97059.56;;;1.02;100.00
68197;BME280;55019;49.382;11.358;2024-02-14T01:42:03;97057.59;;;0.93;100.00
68197;BME280;55019;49.382;11.358;2024-02-14T01:44:33;97064.84;;;0.99;100.00
68197;BME280;55019;49.382;11.358;2024-02-14T01:47:00;97058.84;;;1.00;100.00
68197;BME280;55019;49.382;11.358;2024-02-14T01:49:25;97045.75;;;1.06;100.00
68197;BME280;55019;49.382;11.358;2024-02-14T01:52:00;97044.56;;;1.12;100.00
68197;BME280;55019;49.382;11.358;2024-02-14T01:54:27;97050.78;;;1.20;100.00
68197;BME280;55019;49.382;11.358;2024-02-14T01:56:54;97040.81;;;1.17;100.00
68197;BME280;55019;49.382;11.358;2024-02-14T01:59:20;97043.06;;;1.22;100.00
68197;BME280;55019;49.382;11.358;2024-02-14T02:01:46;97036.59;;;1.30;100.00
68197;BME280;55019;49.382;11.358;2024-02-14T02:04:12;97029.50;;;1.35;100.00
68197;BME280;55019;49.382;11.358;2024-02-14T02:06:38;97035.31;;;1.37;100.00
68197;BME280;55019;49.382;11.358;2024-02-14T02:09:06;97031.84;;;1.38;100.00
68197;BME280;55019;49.382;11.358;2024-02-14T02:11:46;97034.19;;;1.41;100.00
68197;BME280;55019;49.382;11.358;2024-02-14T02:14:33;97029.06;;;1.29;100.00
68197;BME280;55019;49.382;11.358;2024-02-14T02:17:19;97029.31;;;1.24;100.00
68197;BME280;55019;49.382;11.358;2024-02-14T02:20:06;97031.31;;;1.33;100.00
68197;BME280;55019;49.382;11.358;2024-02-14T02:22:34;97028.97;;;1.30;100.00
68197;BME280;55019;49.382;11.358;2024-02-14T02:25:23;97029.97;;;1.28;100.00
68197;BME280;55019;49.382;11.358;2024-02-14T02:28:01;97021.22;;;1.32;100.00
68197;BME280;55019;49.382;11.358;2024-02-14T02:30:31;97013.19;;;1.11;100.00
68197;BME280;55019;49.382;11.358;2024-02-14T02:32:57;97016.56;;;1.12;100.00
68197;BME280;55019;49.382;11.358;2024-02-14T02:35:23;97011.47;;;1.12;100.00
68197;BME280;55019;49.382;11.358;2024-02-14T02:38:09;97013.78;;;1.02;100.00
68197;BME280;55019;49.382;11.358;2024-02-14T02:40:55;97017.16;;;1.03;100.00
68197;BME280;55019;49.382;11.358;2024-02-14T02:43:41;97020.56;;;1.02;100.00
68197;BME280;55019;49.382;11.358;2024-02-14T02:46:25;97019.06;;;0.99;100.00
68197;BME280;55019;49.382;11.358;2024-02-14T02:49:11;97016.50;;;0.99;100.00
68197;BME280;55019;49.382;11.358;2024-02-14T02:51:39;97017.88;;;1.05;100.00
68197;BME280;55019;49.382;11.358;2024-02-14T02:54:25;97019.59;;;1.04;100.00
68197;BME280;55019;49.382;11.358;2024-02-14T02:57:10;97022.13;;;1.04;100.00
68197;BME280;55019;49.382;11.358;2024-02-14T02:59:36;97011.56;;;1.10;100.00
68197;BME280;55019;49.382;11.358;2024-02-14T03:02:03;97015.03;;;1.09;100.00
68197;BME280;55019;49.382;11.358;2024-02-14T03:04:49;97014.41;;;1.06;100.00
68197;BME280;55019;49.382;11.358;2024-02-14T03:07:36;97013.66;;;1.18;100.00
68197;BME280;55019;49.382;11.358;2024-02-14T03:10:23;97014.25;;;1.21;100.00
68197;BME280;55019;49.382;11.358;2024-02-14T03:13:10;97018.72;;;1.18;100.00
68197;BME280;55019;49.382;11.358;2024-02-14T03:15:57;97010.06;;;1.20;100.00
68197;BME280;55019;49.382;11.358;2024-02-14T03:18:24;97015.16;;;1.20;100.00
68197;BME280;55019;49.382;11.358;2024-02-14T03:20:50;97005.50;;;1.25;100.00
68197;BME280;55019;49.382;11.358;2024-02-14T03:23:16;96994.25;;;1.29;100.00
68197;BME280;55019;49.382;11.358;2024-02-14T03:25:42;97007.69;;;1.31;100.00
68197;BME280;55019;49.382;11.358;2024-02-14T03:28:08;96995.75;;;1.32;100.00
68197;BME280;55019;49.382;11.358;2024-02-14T03:30:35;97004.03;;;1.35;100.00
68197;BME280;55019;49.382;11.358;2024-02-14T03:33:02;96996.81;;;1.41;100.00
68197;BME280;55019;49.382;11.358;2024-02-14T03:35:28;97003.13;;;1.36;100.00
68197;BME280;55019;49.382;11.358;2024-02-14T03:37:54;97006.78;;;1.32;100.00
68197;BME280;55019;49.382;11.358;2024-02-14T03:40:19;97004.22;;;1.32;100.00
68197;BME280;55019;49.382;11.358;2024-02-14T03:42:48;97006.97;;;1.29;100.00
68197;BME280;55019;49.382;11.358;2024-02-14T03:45:14;97007.97;;;1.27;100.00
68197;BME280;55019;49.382;11.358;2024-02-14T03:47:40;97001.84;;;1.17;100.00
68197;BME280;55019;49.382;11.358;2024-02-14T03:50:08;96995.91;;;1.16;100.00
68197;BME280;55019;49.382;11.358;2024-02-14T03:52:34;96999.75;;;1.09;100.00
68197;BME280;55019;49.382;11.358;2024-02-14T03:55:00;97003.84;;;1.12;100.00
68197;BME280;55019;49.382;11.358;2024-02-14T03:57:26;97013.56;;;1.05;100.00
68197;BME280;55019;49.382;11.358;2024-02-14T03:59:58;97003.97;;;0.96;100.00
68197;BME280;55019;49.382;11.358;2024-02-14T04:02:24;96998.25;;;0.93;100.00
68197;BME280;55019;49.382;11.358;2024-02-14T04:04:51;97014.00;;;0.71;100.00
68197;BME280;55019;49.382;11.358;2024-02-14T04:07:17;97021.19;;;0.79;100.00
68197;BME280;55019;49.382;11.358;2024-02-14T04:09:43;97022.22;;;0.48;100.00
68197;BME280;55019;49.382;11.358;2024-02-14T04:12:09;97012.03;;;0.48;100.00
68197;BME280;55019;49.382;11.358;2024-02-14T04:14:36;97019.50;;;0.37;100.00
68197;BME280;55019;49.382;11.358;2024-02-14T04:17:04;97019.66;;;0.48;100.00
68197;BME280;55019;49.382;11.358;2024-02-14T04:19:30;97023.09;;;0.61;100.00
68197;BME280;55019;49.382;11.358;2024-02-14T04:21:55;97027.91;;;0.66;100.00
68197;BME280;55019;49.382;11.358;2024-02-14T04:24:21;97027.47;;;0.59;100.00
68197;BME280;55019;49.382;11.358;2024-02-14T04:26:47;97025.94;;;0.57;100.00
68197;BME280;55019;49.382;11.358;2024-02-14T04:29:15;97026.19;;;0.66;100.00
68197;BME280;55019;49.382;11.358;2024-02-14T04:31:40;97021.47;;;0.60;100.00
68197;BME280;55019;49.382;11.358;2024-02-14T04:34:08;97019.09;;;0.71;100.00
68197;BME280;55019;49.382;11.358;2024-02-14T04:36:35;97025.63;;;0.75;100.00
68197;BME280;55019;49.382;11.358;2024-02-14T04:39:01;97015.63;;;0.72;100.00
68197;BME280;55019;49.382;11.358;2024-02-14T04:41:27;97015.28;;;0.78;100.00
68197;BME280;55019;49.382;11.358;2024-02-14T04:43:53;97015.00;;;0.83;100.00
68197;BME280;55019;49.382;11.358;2024-02-14T04:46:19;97011.19;;;0.76;100.00
68197;BME280;55019;49.382;11.358;2024-02-14T04:48:44;97008.47;;;0.79;100.00
68197;BME280;55019;49.382;11.358;2024-02-14T04:51:10;97011.00;;;0.79;100.00
68197;BME280;55019;49.382;11.358;2024-02-14T04:53:36;97016.34;;;0.74;100.00
68197;BME280;55019;49.382;11.358;2024-02-14T04:56:01;97016.56;;;0.57;100.00
68197;BME280;55019;49.382;11.358;2024-02-14T04:58:27;97018.66;;;0.65;100.00
68197;BME280;55019;49.382;11.358;2024-02-14T05:00:53;97018.75;;;0.63;100.00
68197;BME280;55019;49.382;11.358;2024-02-14T05:03:20;97023.59;;;0.54;100.00
68197;BME280;55019;49.382;11.358;2024-02-14T05:05:46;97026.75;;;0.57;100.00
68197;BME280;55019;49.382;11.358;2024-02-14T05:08:12;97022.19;;;0.62;100.00
68197;BME280;55019;49.382;11.358;2024-02-14T05:10:37;97023.81;;;0.63;100.00
68197;BME280;55019;49.382;11.358;2024-02-14T05:13:03;97026.91;;;0.82;100.00
68197;BME280;55019;49.382;11.358;2024-02-14T05:15:30;97020.19;;;0.81;100.00
68197;BME280;55019;49.382;11.358;2024-02-14T05:17:56;97036.75;;;1.01;100.00
68197;BME280;55019;49.382;11.358;2024-02-14T05:20:21;97033.56;;;1.11;100.00
68197;BME280;55019;49.382;11.358;2024-02-14T05:22:47;97041.22;;;0.97;100.00
68197;BME280;55019;49.382;11.358;2024-02-14T05:25:13;97035.00;;;1.15;100.00
68197;BME280;55019;49.382;11.358;2024-02-14T05:27:51;97036.25;;;1.22;100.00
68197;BME280;55019;49.382;11.358;2024-02-14T05:30:16;97033.75;;;1.35;100.00
68197;BME280;55019;49.382;11.358;2024-02-14T05:32:49;97036.75;;;1.41;100.00
68197;BME280;55019;49.382;11.358;2024-02-14T05:35:18;97048.78;;;1.51;100.00
68197;BME280;55019;49.382;11.358;2024-02-14T05:37:43;97050.13;;;1.57;100.00
68197;BME280;55019;49.382;11.358;2024-02-14T05:40:09;97054.94;;;1.61;100.00
68197;BME280;55019;49.382;11.358;2024-02-14T05:42:35;97049.84;;;1.61;100.00
68197;BME280;55019;49.382;11.358;2024-02-14T05:45:01;97049.94;;;1.60;100.00
68197;BME280;55019;49.382;11.358;2024-02-14T05:47:31;97061.69;;;1.75;100.00
68197;BME280;55019;49.382;11.358;2024-02-14T05:49:57;97059.78;;;1.78;100.00
68197;BME280;55019;49.382;11.358;2024-02-14T05:52:23;97060.59;;;1.79;100.00
68197;BME280;55019;49.382;11.358;2024-02-14T05:54:48;97058.00;;;1.66;100.00
68197;BME280;55019;49.382;11.358;2024-02-14T05:57:14;97063.63;;;1.71;100.00
68197;BME280;55019;49.382;11.358;2024-02-14T05:59:39;97063.56;;;1.85;100.00
68197;BME280;55019;49.382;11.358;2024-02-14T06:02:05;97060.44;;;1.68;100.00
68197;BME280;55019;49.382;11.358;2024-02-14T06:04:33;97075.72;;;1.68;100.00
68197;BME280;55019;49.382;11.358;2024-02-14T06:06:59;97062.28;;;1.66;100.00
68197;BME280;55019;49.382;11.358;2024-02-14T06:09:24;97059.53;;;1.69;100.00
68197;BME280;55019;49.382;11.358;2024-02-14T06:11:50;97055.63;;;1.90;100.00
68197;BME280;55019;49.382;11.358;2024-02-14T06:14:16;97051.16;;;2.06;100.00
68197;BME280;55019;49.382;11.358;2024-02-14T06:16:42;97062.78;;;2.10;100.00
68197;BME280;55019;49.382;11.358;2024-02-14T06:19:07;97053.41;;;2.10;100.00
68197;BME280;55019;49.382;11.358;2024-02-14T06:21:34;97058.31;;;2.13;100.00
68197;BME280;55019;49.382;11.358;2024-02-14T06:24:00;97055.84;;;2.12;100.00
68197;BME280;55019;49.382;11.358;2024-02-14T06:26:26;97057.47;;;2.13;100.00
68197;BME280;55019;49.382;11.358;2024-02-14T06:28:52;97060.97;;;2.24;100.00
68197;BME280;55019;49.382;11.358;2024-02-14T06:31:23;97058.50;;;2.23;100.00
68197;BME280;55019;49.382;11.358;2024-02-14T06:33:49;97059.03;;;2.28;100.00
68197;BME280;55019;49.382;11.358;2024-02-14T06:36:15;97064.53;;;2.22;100.00
68197;BME280;55019;49.382;11.358;2024-02-14T06:38:40;97069.63;;;2.22;100.00
68197;BME280;55019;49.382;11.358;2024-02-14T06:41:06;97076.50;;;2.34;100.00
68197;BME280;55019;49.382;11.358;2024-02-14T06:43:32;97078.84;;;2.37;100.00
68197;BME280;55019;49.382;11.358;2024-02-14T06:45:58;97078.50;;;2.41;100.00
68197;BME280;55019;49.382;11.358;2024-02-14T06:48:30;97087.91;;;2.41;100.00
68197;BME280;55019;49.382;11.358;2024-02-14T06:50:56;97090.75;;;2.36;100.00
68197;BME280;55019;49.382;11.358;2024-02-14T06:53:22;97077.31;;;2.47;100.00
68197;BME280;55019;49.382;11.358;2024-02-14T06:55:48;97080.97;;;2.43;100.00
68197;BME280;55019;49.382;11.358;2024-02-14T06:58:13;97088.41;;;2.46;100.00
68197;BME280;55019;49.382;11.358;2024-02-14T07:00:39;97084.03;;;2.48;100.00
68197;BME280;55019;49.382;11.358;2024-02-14T07:03:05;97083.00;;;2.50;100.00
68197;BME280;55019;49.382;11.358;2024-02-14T07:05:30;97084.03;;;2.60;100.00
68197;BME280;55019;49.382;11.358;2024-02-14T07:07:56;97084.84;;;2.61;100.00
68197;BME280;55019;49.382;11.358;2024-02-14T07:10:22;97087.19;;;2.64;100.00
68197;BME280;55019;49.382;11.358;2024-02-14T07:12:48;97086.88;;;2.68;100.00
68197;BME280;55019;49.382;11.358;2024-02-14T07:15:14;97088.41;;;2.71;100.00
68197;BME280;55019;49.382;11.358;2024-02-14T07:17:40;97090.78;;;2.61;100.00
68197;BME280;55019;49.382;11.358;2024-02-14T07:20:06;97083.22;;;2.60;100.00
68197;BME280;55019;49.382;11.358;2024-02-14T07:22:37;97084.13;;;2.34;100.00
68197;BME280;55019;49.382;11.358;2024-02-14T07:25:03;97089.31;;;2.32;100.00
68197;BME280;55019;49.382;11.358;2024-02-14T07:27:31;97085.03;;;2.45;100.00
68197;BME280;55019;49.382;11.358;2024-02-14T07:29:57;97086.47;;;2.37;100.00
68197;BME280;55019;49.382;11.358;2024-02-14T07:32:22;97088.72;;;2.54;100.00
68197;BME280;55019;49.382;11.358;2024-02-14T07:34:48;97091.16;;;2.68;100.00
68197;BME280;55019;49.382;11.358;2024-02-14T07:37:14;97087.91;;;2.90;100.00
68197;BME280;55019;49.382;11.358;2024-02-14T07:39:45;97078.75;;;3.11;100.00
68197;BME280;55019;49.382;11.358;2024-02-14T07:42:12;97078.44;;;3.16;100.00
68197;BME280;55019;49.382;11.358;2024-02-14T07:44:37;97091.78;;;3.32;100.00
68197;BME280;55019;49.382;11.358;2024-02-14T07:47:03;97077.34;;;3.43;100.00
68197;BME280;55019;49.382;11.358;2024-02-14T07:49:29;97069.94;;;3.75;100.00
68197;BME280;55019;49.382;11.358;2024-02-14T07:51:55;97063.28;;;3.96;100.00
68197;BME280;55019;49.382;11.358;2024-02-14T07:54:20;97066.16;;;4.15;100.00
68197;BME280;55019;49.382;11.358;2024-02-14T07:56:46;97068.38;;;4.30;100.00
68197;BME280;55019;49.382;11.358;2024-02-14T07:59:12;97068.75;;;4.47;100.00
68197;BME280;55019;49.382;11.358;2024-02-14T08:01:37;97075.41;;;4.61;100.00
68197;BME280;55019;49.382;11.358;2024-02-14T08:04:03;97073.56;;;4.63;100.00
68197;BME280;55019;49.382;11.358;2024-02-14T08:06:30;97073.63;;;4.39;100.00
68197;BME280;55019;49.382;11.358;2024-02-14T08:08:56;97067.03;;;4.48;100.00
68197;BME280;55019;49.382;11.358;2024-02-14T08:11:27;97076.97;;;4.29;100.00
68197;BME280;55019;49.382;11.358;2024-02-14T08:13:53;97081.91;;;4.43;100.00
68197;BME280;55019;49.382;11.358;2024-02-14T08:16:18;97078.19;;;4.47;100.00
68197;BME280;55019;49.382;11.358;2024-02-14T08:18:44;97091.22;;;4.55;100.00
68197;BME280;55019;49.382;11.358;2024-02-14T08:21:10;97095.41;;;4.45;100.00
68197;BME280;55019;49.382;11.358;2024-02-14T08:23:36;97101.09;;;4.48;100.00
68197;BME280;55019;49.382;11.358;2024-02-14T08:26:04;97094.69;;;4.43;100.00
68197;BME280;55019;49.382;11.358;2024-02-14T08:28:37;97089.59;;;4.54;100.00
68197;BME280;55019;49.382;11.358;2024-02-14T08:31:03;97093.78;;;4.44;100.00
68197;BME280;55019;49.382;11.358;2024-02-14T08:33:29;97094.31;;;4.25;100.00
68197;BME280;55019;49.382;11.358;2024-02-14T08:35:54;97092.31;;;4.29;100.00
68197;BME280;55019;49.382;11.358;2024-02-14T08:38:22;97096.88;;;4.36;100.00
68197;BME280;55019;49.382;11.358;2024-02-14T08:40:48;97090.03;;;4.37;100.00
68197;BME280;55019;49.382;11.358;2024-02-14T08:43:14;97100.50;;;4.34;100.00
68197;BME280;55019;49.382;11.358;2024-02-14T08:45:40;97102.31;;;4.32;100.00
68197;BME280;55019;49.382;11.358;2024-02-14T08:48:06;97092.81;;;4.34;100.00
68197;BME280;55019;49.382;11.358;2024-02-14T08:50:32;97096.72;;;4.27;100.00
68197;BME280;55019;49.382;11.358;2024-02-14T08:52:58;97091.16;;;4.33;100.00
68197;BME280;55019;49.382;11.358;2024-02-14T08:55:24;97100.97;;;4.39;100.00
68197;BME280;55019;49.382;11.358;2024-02-14T08:57:49;97103.88;;;4.45;100.00
68197;BME280;55019;49.382;11.358;2024-02-14T09:00:15;97104.72;;;4.57;100.00
68197;BME280;55019;49.382;11.358;2024-02-14T09:02:45;97096.56;;;4.52;100.00
68197;BME280;55019;49.382;11.358;2024-02-14T09:05:13;97099.16;;;4.63;100.00
68197;BME280;55019;49.382;11.358;2024-02-14T09:07:39;97105.66;;;4.78;100.00
68197;BME280;55019;49.382;11.358;2024-02-14T09:10:04;97096.13;;;4.80;100.00
68197;BME280;55019;49.382;11.358;2024-02-14T09:12:31;97105.69;;;5.00;100.00
68197;BME280;55019;49.382;11.358;2024-02-14T09:14:57;97109.44;;;4.85;100.00
68197;BME280;55019;49.382;11.358;2024-02-14T09:17:23;97099.19;;;4.96;100.00
68197;BME280;55019;49.382;11.358;2024-02-14T09:19:49;97095.00;;;4.95;100.00
68197;BME280;55019;49.382;11.358;2024-02-14T09:22:15;97101.00;;;5.27;100.00
68197;BME280;55019;49.382;11.358;2024-02-14T09:24:50;97101.72;;;5.40;100.00
68197;BME280;55019;49.382;11.358;2024-02-14T09:27:16;97096.75;;;5.69;100.00
68197;BME280;55019;49.382;11.358;2024-02-14T09:29:42;97109.78;;;5.88;100.00
68197;BME280;55019;49.382;11.358;2024-02-14T09:32:08;97103.03;;;5.87;100.00
68197;BME280;55019;49.382;11.358;2024-02-14T09:34:34;97102.13;;;5.66;100.00
68197;BME280;55019;49.382;11.358;2024-02-14T09:37:00;97098.75;;;5.66;100.00
68197;BME280;55019;49.382;11.358;2024-02-14T09:39:25;97104.63;;;5.77;100.00
68197;BME280;55019;49.382;11.358;2024-02-14T09:41:54;97100.94;;;5.81;100.00
68197;BME280;55019;49.382;11.358;2024-02-14T09:44:27;97100.38;;;5.67;100.00
68197;BME280;55019;49.382;11.358;2024-02-14T09:46:55;97110.75;;;5.65;100.00
68197;BME280;55019;49.382;11.358;2024-02-14T09:49:22;97105.66;;;5.55;100.00
68197;BME280;55019;49.382;11.358;2024-02-14T09:51:49;97092.94;;;5.53;100.00
68197;BME280;55019;49.382;11.358;2024-02-14T09:54:16;97101.31;;;5.55;100.00
68197;BME280;55019;49.382;11.358;2024-02-14T09:56:50;97098.59;;;5.78;100.00
68197;BME280;55019;49.382;11.358;2024-02-14T09:59:22;97103.00;;;5.98;100.00
68197;BME280;55019;49.382;11.358;2024-02-14T10:01:48;97110.75;;;6.08;100.00
68197;BME280;55019;49.382;11.358;2024-02-14T10:04:16;97115.06;;;6.07;100.00
68197;BME280;55019;49.382;11.358;2024-02-14T10:06:47;97113.19;;;6.09;100.00
68197;BME280;55019;49.382;11.358;2024-02-14T10:09:19;97113.75;;;5.81;100.00
68197;BME280;55019;49.382;11.358;2024-02-14T10:11:45;97108.75;;;5.80;100.00
68197;BME280;55019;49.382;11.358;2024-02-14T10:14:12;97113.75;;;5.81;100.00
68197;BME280;55019;49.382;11.358;2024-02-14T10:16:38;97111.88;;;5.94;100.00
68197;BME280;55019;49.382;11.358;2024-02-14T10:19:04;97109.28;;;6.26;100.00
68197;BME280;55019;49.382;11.358;2024-02-14T10:21:30;97109.44;;;6.13;100.00
68197;BME280;55019;49.382;11.358;2024-02-14T10:24:02;97117.84;;;6.15;100.00
68197;BME280;55019;49.382;11.358;2024-02-14T10:26:28;97117.44;;;5.99;100.00
68197;BME280;55019;49.382;11.358;2024-02-14T10:28:56;97117.31;;;6.01;100.00
68197;BME280;55019;49.382;11.358;2024-02-14T10:31:26;97116.22;;;6.14;100.00
68197;BME280;55019;49.382;11.358;2024-02-14T10:33:53;97106.53;;;6.18;100.00
68197;BME280;55019;49.382;11.358;2024-02-14T10:36:21;97105.53;;;6.30;100.00
68197;BME280;55019;49.382;11.358;2024-02-14T10:38:47;97115.47;;;6.64;100.00
68197;BME280;55019;49.382;11.358;2024-02-14T10:41:16;97118.84;;;6.85;100.00
68197;BME280;55019;49.382;11.358;2024-02-14T10:43:42;97109.63;;;7.03;100.00
68197;BME280;55019;49.382;11.358;2024-02-14T10:46:19;97109.81;;;7.60;100.00
68197;BME280;55019;49.382;11.358;2024-02-14T10:48:53;97108.59;;;7.64;100.00
68197;BME280;55019;49.382;11.358;2024-02-14T10:51:21;97101.56;;;7.66;100.00
68197;BME280;55019;49.382;11.358;2024-02-14T10:53:54;97098.50;;;7.32;100.00
68197;BME280;55019;49.382;11.358;2024-02-14T10:56:22;97097.91;;;6.90;100.00
68197;BME280;55019;49.382;11.358;2024-02-14T10:58:50;97096.19;;;7.29;100.00
68197;BME280;55019;49.382;11.358;2024-02-14T11:01:21;97098.53;;;7.42;100.00
68197;BME280;55019;49.382;11.358;2024-02-14T11:03:48;97085.22;;;7.76;100.00
68197;BME280;55019;49.382;11.358;2024-02-14T11:06:17;97087.06;;;7.55;100.00
68197;BME280;55019;49.382;11.358;2024-02-14T11:09:00;97083.81;;;7.53;100.00
68197;BME280;55019;49.382;11.358;2024-02-14T11:11:29;97079.94;;;7.68;100.00
68197;BME280;55019;49.382;11.358;2024-02-14T11:13:56;97079.91;;;7.59;100.00
68197;BME280;55019;49.382;11.358;2024-02-14T11:16:28;97073.81;;;7.60;100.00
68197;BME280;55019;49.382;11.358;2024-02-14T11:19:09;97079.91;;;7.59;100.00
68197;BME280;55019;49.382;11.358;2024-02-14T11:21:55;97083.84;;;7.82;100.00
68197;BME280;55019;49.382;11.358;2024-02-14T11:24:28;97077.50;;;8.05;100.00
68197;BME280;55019;49.382;11.358;2024-02-14T11:26:55;97084.81;;;7.90;100.00
68197;BME280;55019;49.382;11.358;2024-02-14T11:29:28;97083.03;;;7.72;100.00
68197;BME280;55019;49.382;11.358;2024-02-14T11:32:01;97089.53;;;7.76;100.00
68197;BME280;55019;49.382;11.358;2024-02-14T11:34:30;97088.03;;;7.64;100.00
68197;BME280;55019;49.382;11.358;2024-02-14T11:36:59;97085.31;;;7.56;100.00
68197;BME280;55019;49.382;11.358;2024-02-14T11:39:25;97089.09;;;7.61;100.00
68197;BME280;55019;49.382;11.358;2024-02-14T11:41:51;97088.56;;;7.58;100.00
68197;BME280;55019;49.382;11.358;2024-02-14T11:44:19;97100.22;;;7.81;100.00
68197;BME280;55019;49.382;11.358;2024-02-14T11:46:47;97086.97;;;7.76;100.00
68197;BME280;55019;49.382;11.358;2024-02-14T11:49:13;97094.97;;;7.92;100.00
68197;BME280;55019;49.382;11.358;2024-02-14T11:51:39;97091.19;;;8.05;100.00
68197;BME280;55019;49.382;11.358;2024-02-14T11:54:06;97082.13;;;8.30;100.00
68197;BME280;55019;49.382;11.358;2024-02-14T11:56:38;97080.16;;;9.42;100.00
68197;BME280;55019;49.382;11.358;2024-02-14T11:59:05;97086.00;;;10.41;100.00
68197;BME280;55019;49.382;11.358;2024-02-14T12:01:38;97082.78;;;10.64;100.00
68197;BME280;55019;49.382;11.358;2024-02-14T12:04:08;97070.66;;;10.82;100.00
68197;BME280;55019;49.382;11.358;2024-02-14T12:06:35;97076.81;;;10.64;100.00
68197;BME280;55019;49.382;11.358;2024-02-14T12:09:05;97068.97;;;10.99;100.00
68197;BME280;55019;49.382;11.358;2024-02-14T12:11:32;97071.28;;;11.10;100.00
68197;BME280;55019;49.382;11.358;2024-02-14T12:14:10;97070.31;;;11.11;100.00
68197;BME280;55019;49.382;11.358;2024-02-14T12:16:37;97064.47;;;10.50;100.00
68197;BME280;55019;49.382;11.358;2024-02-14T12:19:07;97068.16;;;10.30;100.00
68197;BME280;55019;49.382;11.358;2024-02-14T12:21:36;97066.13;;;10.16;100.00
68197;BME280;55019;49.382;11.358;2024-02-14T12:24:09;97073.03;;;9.98;100.00
68197;BME280;55019;49.382;11.358;2024-02-14T12:26:39;97066.34;;;10.22;100.00
68197;BME280;55019;49.382;11.358;2024-02-14T12:29:05;97056.63;;;9.72;100.00
68197;BME280;55019;49.382;11.358;2024-02-14T12:31:33;97062.44;;;10.01;100.00
68197;BME280;55019;49.382;11.358;2024-02-14T12:33:59;97059.97;;;9.99;100.00
68197;BME280;55019;49.382;11.358;2024-02-14T12:36:28;97058.09;;;9.92;100.00
68197;BME280;55019;49.382;11.358;2024-02-14T12:38:57;97055.97;;;9.88;100.00
68197;BME280;55019;49.382;11.358;2024-02-14T12:41:22;97063.50;;;9.81;100.00
68197;BME280;55019;49.382;11.358;2024-02-14T12:43:59;97058.41;;;9.89;100.00
68197;BME280;55019;49.382;11.358;2024-02-14T12:46:25;97056.25;;;9.67;100.00
68197;BME280;55019;49.382;11.358;2024-02-14T12:48:51;97052.34;;;9.63;100.00
68197;BME280;55019;49.382;11.358;2024-02-14T12:51:17;97053.91;;;9.74;100.00
68197;BME280;55019;49.382;11.358;2024-02-14T12:53:43;97057.38;;;9.82;100.00
68197;BME280;55019;49.382;11.358;2024-02-14T12:56:09;97071.19;;;9.91;100.00